Time;durP1;ratioP1;P1;durP2;ratioP2;P2;SDS_P1;SDS_P2;PMS_P1;PMS_P2;Temp;Humidity;BMP_temperature;BMP_pressure;BME280_temperature;BME280_humidity;BME280_pressure;Samples;Min_cycle;Max_cycle;Signal;HPM_P1;HPM_P2
2023/12/15 00:01:20;;;;;;;16.88;12.68;;;11.00;99.90;;;;;;5185403;28;20026;-76
2023/12/15 00:03:51;;;;;;;19.92;12.00;;;11.00;99.90;;;;;;5185169;28;20155;-73
2023/12/15 00:06:22;;;;;;;22.85;12.73;;;10.80;99.90;;;;;;5184754;28;20042;-75
2023/12/15 00:08:53;;;;;;;15.20;12.00;;;10.80;99.90;;;;;;5184902;28;20041;-75
2023/12/15 00:11:24;;;;;;;13.45;11.50;;;10.80;99.90;;;;;;5184799;28;20370;-77
2023/12/15 00:13:55;;;;;;;15.57;10.95;;;10.90;99.90;;;;;;5184733;28;20038;-75
2023/12/15 00:16:26;;;;;;;16.20;13.10;;;10.90;99.90;;;;;;5184842;28;20080;-74
2023/12/15 00:18:57;;;;;;;20.70;14.00;;;10.80;99.90;;;;;;5184893;28;20470;-74
2023/12/15 00:21:28;;;;;;;16.70;13.52;;;10.80;99.90;;;;;;5185409;28;20092;-74
2023/12/15 00:23:58;;;;;;;19.30;13.10;;;10.90;99.90;;;;;;5184846;28;20422;-74
2023/12/15 00:26:29;;;;;;;15.45;13.25;;;10.60;99.90;;;;;;5183984;28;20520;-75
2023/12/15 00:29:01;;;;;;;17.38;13.40;;;10.80;99.90;;;;;;5184308;28;20509;-75
2023/12/15 00:31:32;;;;;;;15.50;13.73;;;10.70;99.90;;;;;;5183588;28;20026;-74
2023/12/15 00:34:03;;;;;;;18.52;15.00;;;10.80;99.90;;;;;;5183380;28;20732;-75
2023/12/15 00:36:34;;;;;;;19.20;14.88;;;10.60;99.90;;;;;;5182544;28;20030;-76
2023/12/15 00:39:05;;;;;;;19.00;17.10;;;10.40;99.90;;;;;;5183374;28;20097;-75
2023/12/15 00:41:36;;;;;;;19.48;16.30;;;10.50;99.90;;;;;;5183460;28;20034;-76
2023/12/15 00:44:06;;;;;;;16.55;14.90;;;10.40;99.90;;;;;;5183368;28;20026;-75
2023/12/15 00:46:37;;;;;;;20.42;14.63;;;10.50;99.90;;;;;;5184539;28;20121;-73
2023/12/15 00:49:08;;;;;;;15.82;13.43;;;10.70;99.90;;;;;;5184434;28;20426;-74
2023/12/15 00:51:39;;;;;;;19.70;14.32;;;10.60;99.90;;;;;;5184715;28;20373;-73
2023/12/15 00:54:10;;;;;;;22.75;15.48;;;10.60;99.90;;;;;;5184923;28;20033;-75
2023/12/15 00:56:41;;;;;;;19.08;14.13;;;10.70;99.90;;;;;;5184150;28;20030;-74
2023/12/15 00:59:11;;;;;;;19.17;13.57;;;10.70;99.90;;;;;;5184162;28;20128;-74
2023/12/15 01:01:42;;;;;;;18.52;12.45;;;10.70;99.90;;;;;;5166684;28;20471;-74
2023/12/15 01:04:13;;;;;;;16.67;12.25;;;10.40;99.90;;;;;;5184324;28;20358;-76
2023/12/15 01:06:44;;;;;;;16.45;13.90;;;10.30;99.90;;;;;;5184195;28;20045;-74
2023/12/15 01:09:15;;;;;;;21.10;13.60;;;10.40;99.90;;;;;;5166431;28;20561;-75
2023/12/15 01:11:48;;;;;;;16.75;13.55;;;10.20;99.90;;;;;;5184079;28;20112;-74
2023/12/15 01:14:19;;;;;;;22.15;15.15;;;10.10;99.90;;;;;;5184158;28;20028;-74
2023/12/15 01:16:50;;;;;;;17.40;12.57;;;10.10;99.90;;;;;;5184222;28;20029;-74
2023/12/15 01:19:21;;;;;;;17.58;13.68;;;9.90;99.90;;;;;;5184127;28;20488;-74
2023/12/15 01:21:52;;;;;;;18.08;14.32;;;9.70;99.90;;;;;;5183932;28;20057;-74
2023/12/15 01:24:23;;;;;;;18.10;13.98;;;9.80;99.90;;;;;;5183751;28;20398;-75
2023/12/15 01:26:54;;;;;;;20.50;13.65;;;10.00;99.90;;;;;;5182904;28;20490;-75
2023/12/15 01:29:25;;;;;;;15.55;12.55;;;10.00;99.90;;;;;;5182977;28;20776;-74
2023/12/15 01:31:56;;;;;;;15.82;12.77;;;10.10;99.90;;;;;;5183078;28;20037;-74
2023/12/15 01:34:27;;;;;;;17.50;13.68;;;10.30;99.90;;;;;;5183140;28;20543;-75
2023/12/15 01:36:58;;;;;;;15.25;12.98;;;10.30;99.90;;;;;;5183196;28;20030;-75
2023/12/15 01:39:29;;;;;;;17.67;13.90;;;10.20;99.90;;;;;;5183218;28;20022;-74
2023/12/15 01:42:00;;;;;;;17.58;13.40;;;10.20;99.90;;;;;;5183854;28;20018;-75
2023/12/15 01:44:31;;;;;;;17.55;14.52;;;10.20;99.90;;;;;;5166682;28;20030;-73
2023/12/15 01:47:02;;;;;;;13.82;12.43;;;10.30;99.90;;;;;;5166493;28;20029;-74
2023/12/15 01:49:33;;;;;;;21.13;12.63;;;10.20;99.90;;;;;;5168978;28;20025;-73
2023/12/15 01:52:04;;;;;;;16.48;13.02;;;10.20;99.90;;;;;;5187358;28;20034;-74
2023/12/15 01:54:35;;;;;;;16.98;13.88;;;10.20;99.90;;;;;;5187652;28;20072;-75
2023/12/15 01:57:07;;;;;;;22.10;12.40;;;10.20;99.90;;;;;;5187495;28;20030;-76
2023/12/15 01:59:51;;;;;;;19.60;12.80;;;10.10;99.90;;;;;;5169283;28;20054;-73
2023/12/15 02:02:22;;;;;;;15.65;12.63;;;10.00;99.90;;;;;;5187686;28;20030;-73
2023/12/15 02:04:53;;;;;;;17.45;12.48;;;9.90;99.90;;;;;;5170131;28;20036;-75
2023/12/15 02:07:24;;;;;;;15.13;12.85;;;9.90;99.90;;;;;;5187616;28;20100;-74
2023/12/15 02:09:56;;;;;;;17.15;13.02;;;10.10;99.90;;;;;;5187345;28;20041;-74
2023/12/15 02:12:26;;;;;;;17.40;13.73;;;10.10;99.90;;;;;;5187333;28;20026;-75
2023/12/15 02:14:57;;;;;;;16.95;14.20;;;10.10;99.90;;;;;;5187243;28;20191;-75
2023/12/15 02:17:28;;;;;;;18.80;13.65;;;10.00;99.90;;;;;;5187290;28;20033;-73
2023/12/15 02:19:59;;;;;;;19.17;13.55;;;10.10;99.90;;;;;;5186069;28;20026;-75
2023/12/15 02:22:30;;;;;;;14.02;12.43;;;10.00;99.90;;;;;;5186460;28;20032;-76
2023/12/15 02:25:01;;;;;;;17.85;12.85;;;9.90;99.90;;;;;;5185794;28;20041;-75
2023/12/15 02:27:32;;;;;;;18.58;12.80;;;10.00;99.90;;;;;;5185529;28;20083;-76
2023/12/15 02:30:04;;;;;;;17.73;12.35;;;10.10;99.90;;;;;;5185909;28;20034;-76
2023/12/15 02:32:35;;;;;;;16.35;13.10;;;10.10;99.90;;;;;;5185587;28;20160;-75
2023/12/15 02:35:06;;;;;;;22.05;14.65;;;10.10;99.90;;;;;;5185748;28;20100;-74
2023/12/15 02:37:37;;;;;;;16.98;13.45;;;10.00;99.90;;;;;;5168567;28;20216;-76
2023/12/15 02:40:09;;;;;;;15.23;13.38;;;10.10;99.90;;;;;;5186710;28;20017;-75
2023/12/15 02:42:39;;;;;;;15.55;13.32;;;10.00;99.90;;;;;;5186865;28;20029;-73
2023/12/15 02:45:10;;;;;;;14.30;12.82;;;10.10;99.90;;;;;;5186600;28;20075;-76
2023/12/15 02:47:41;;;;;;;17.80;14.57;;;10.10;99.90;;;;;;5168953;28;20034;-76
2023/12/15 02:50:12;;;;;;;17.60;15.07;;;10.10;99.90;;;;;;5187146;28;20071;-75
2023/12/15 02:52:43;;;;;;;25.77;19.85;;;10.20;99.90;;;;;;5186793;28;20030;-75
2023/12/15 02:55:14;;;;;;;25.27;18.02;;;10.10;99.90;;;;;;5168705;28;20026;-74
2023/12/15 02:57:45;;;;;;;22.60;18.10;;;10.00;99.90;;;;;;5186281;28;20026;-76
2023/12/15 03:00:16;;;;;;;19.45;15.57;;;10.00;99.90;;;;;;5185016;28;20500;-73
2023/12/15 03:02:47;;;;;;;22.13;18.50;;;10.00;99.90;;;;;;5186371;28;20416;-77
2023/12/15 03:05:18;;;;;;;19.75;14.85;;;9.90;99.90;;;;;;5168256;28;20529;-75
2023/12/15 03:07:49;;;;;;;21.33;16.42;;;10.00;99.90;;;;;;5185954;28;20121;-75
2023/12/15 03:10:19;;;;;;;22.85;15.82;;;10.10;99.90;;;;;;5186134;28;20030;-74
2023/12/15 03:12:50;;;;;;;20.70;16.00;;;10.00;99.90;;;;;;5186161;28;20038;-75
2023/12/15 03:15:21;;;;;;;20.27;14.20;;;10.20;99.90;;;;;;5167939;28;20068;-73
2023/12/15 03:17:52;;;;;;;22.42;14.10;;;10.20;99.90;;;;;;5185392;28;20374;-73
2023/12/15 03:20:23;;;;;;;16.58;13.07;;;10.30;99.90;;;;;;5183429;28;20084;-75
2023/12/15 03:22:59;;;;;;;15.95;11.32;;;10.30;99.90;;;;;;5184836;28;20041;-75
2023/12/15 03:25:30;;;;;;;13.32;11.48;;;10.20;99.90;;;;;;5185248;28;20022;-74
2023/12/15 03:28:00;;;;;;;13.82;11.52;;;10.10;99.90;;;;;;5167272;28;20073;-75
2023/12/15 03:30:31;;;;;;;13.85;10.32;;;10.30;99.90;;;;;;5185511;28;20029;-74
2023/12/15 03:33:02;;;;;;;12.80;10.73;;;10.40;99.90;;;;;;5185462;28;20022;-75
2023/12/15 03:35:33;;;;;;;15.20;10.15;;;10.40;99.90;;;;;;5167959;28;20117;-75
2023/12/15 03:38:07;;;;;;;12.52;10.73;;;10.50;99.90;;;;;;5168095;28;20057;-73
2023/12/15 03:40:38;;;;;;;15.75;12.43;;;10.50;99.90;;;;;;5184467;28;20026;-76
2023/12/15 03:43:09;;;;;;;11.82;10.65;;;10.70;99.90;;;;;;5184444;28;20486;-73
2023/12/15 03:45:40;;;;;;;16.77;13.52;;;10.70;99.90;;;;;;5184550;28;20096;-74
2023/12/15 03:48:11;;;;;;;14.45;12.95;;;11.00;99.90;;;;;;5184902;28;20081;-76
2023/12/15 03:50:41;;;;;;;11.35;9.82;;;11.10;99.90;;;;;;5184640;28;20331;-73
2023/12/15 03:53:12;;;;;;;12.07;9.77;;;11.10;99.90;;;;;;5167668;28;20464;-73
2023/12/15 03:55:43;;;;;;;12.02;10.82;;;11.10;99.90;;;;;;5183260;28;20084;-76
2023/12/15 03:58:14;;;;;;;8.60;7.43;;;11.20;99.90;;;;;;5674192;22;20475;-73
2023/12/15 04:00:45;;;;;;;8.63;6.40;;;11.20;99.90;;;;;;5185277;28;20041;-75
2023/12/15 04:03:16;;;;;;;8.40;7.60;;;11.20;99.90;;;;;;5184315;28;20041;-74
2023/12/15 04:05:47;;;;;;;12.73;7.60;;;11.30;99.90;;;;;;5185178;28;20021;-73
2023/12/15 04:08:17;;;;;;;10.65;8.35;;;11.30;99.90;;;;;;5185420;28;20137;-74
2023/12/15 04:10:48;;;;;;;9.25;7.05;;;11.40;99.90;;;;;;5184178;28;20026;-74
2023/12/15 04:13:19;;;;;;;10.77;8.00;;;11.20;99.90;;;;;;5167241;28;20036;-74
2023/12/15 04:15:50;;;;;;;8.88;7.78;;;11.30;99.90;;;;;;5183725;28;20053;-76
2023/12/15 04:18:21;;;;;;;9.85;8.48;;;11.30;99.90;;;;;;5183773;28;20404;-76
2023/12/15 04:20:52;;;;;;;12.55;8.10;;;11.30;99.90;;;;;;5165749;28;20501;-76
2023/12/15 04:23:23;;;;;;;9.88;6.90;;;11.40;99.90;;;;;;5183667;28;20080;-76
2023/12/15 04:25:53;;;;;;;11.93;7.97;;;11.30;99.90;;;;;;5183693;28;20030;-75
2023/12/15 04:28:27;;;;;;;9.73;8.38;;;11.40;99.90;;;;;;5166138;28;20058;-75
2023/12/15 04:30:58;;;;;;;13.80;8.68;;;11.30;99.90;;;;;;5184741;28;20018;-73
2023/12/15 04:33:29;;;;;;;10.63;9.52;;;11.40;99.90;;;;;;5184716;28;20033;-73
2023/12/15 04:36:00;;;;;;;13.85;10.82;;;11.30;99.90;;;;;;5184792;28;20042;-76
2023/12/15 04:38:31;;;;;;;15.30;11.27;;;11.30;99.90;;;;;;5185041;28;20022;-76
2023/12/15 04:41:02;;;;;;;15.82;10.63;;;11.40;99.90;;;;;;5185107;28;20032;-73
2023/12/15 04:43:33;;;;;;;15.05;10.55;;;11.30;99.90;;;;;;5167304;28;20021;-75
2023/12/15 04:46:04;;;;;;;14.40;11.07;;;11.30;99.90;;;;;;5184234;28;20034;-76
2023/12/15 04:48:35;;;;;;;11.80;10.60;;;11.40;99.90;;;;;;5166900;28;20066;-73
2023/12/15 04:51:06;;;;;;;10.95;9.85;;;11.30;99.90;;;;;;5184339;28;20516;-75
2023/12/15 04:53:37;;;;;;;12.00;10.43;;;11.30;99.90;;;;;;5184489;28;20030;-74
2023/12/15 04:56:08;;;;;;;13.32;9.98;;;11.30;99.90;;;;;;5184188;28;20076;-76
2023/12/15 04:58:40;;;;;;;10.93;9.57;;;11.40;99.90;;;;;;5659859;22;20460;-73
2023/12/15 05:01:13;;;;;;;16.10;10.43;;;11.40;99.90;;;;;;5186891;28;20025;-73
2023/12/15 05:03:44;;;;;;;12.18;8.77;;;11.30;99.90;;;;;;5167796;28;20037;-76
2023/12/15 05:06:26;;;;;;;11.57;9.73;;;11.40;99.90;;;;;;5184061;28;20397;-78
2023/12/15 05:08:57;;;;;;;16.27;11.18;;;11.40;99.90;;;;;;5188221;28;20411;-77
2023/12/15 05:11:27;;;;;;;11.30;9.93;;;11.30;99.90;;;;;;5195454;28;20100;-76
2023/12/15 05:13:58;;;;;;;13.00;9.23;;;11.30;99.90;;;;;;5203664;28;20113;-76
2023/12/15 05:16:29;;;;;;;12.95;10.85;;;11.30;99.90;;;;;;5203465;28;20472;-73
2023/12/15 05:19:00;;;;;;;11.02;9.25;;;11.30;99.90;;;;;;5203791;28;20064;-75
2023/12/15 05:21:31;;;;;;;13.52;11.27;;;11.20;99.90;;;;;;5203794;28;20099;-75
2023/12/15 05:24:02;;;;;;;14.50;12.18;;;11.20;99.90;;;;;;5206049;28;20087;-73
2023/12/15 05:26:33;;;;;;;13.23;10.05;;;11.20;99.90;;;;;;5190921;28;20025;-75
2023/12/15 05:29:04;;;;;;;12.35;10.02;;;11.40;99.90;;;;;;5190540;28;20064;-76
2023/12/15 05:31:35;;;;;;;17.17;12.60;;;11.40;99.90;;;;;;5208323;28;20029;-76
2023/12/15 05:34:06;;;;;;;24.95;17.50;;;11.40;99.90;;;;;;5208309;28;20033;-76
2023/12/15 05:36:37;;;;;;;12.20;10.35;;;11.40;99.90;;;;;;5208471;28;20079;-73
2023/12/15 05:39:07;;;;;;;9.25;7.88;;;11.30;99.90;;;;;;5208495;28;20022;-73
2023/12/15 05:41:42;;;;;;;16.05;12.85;;;11.30;99.90;;;;;;5190640;28;20025;-77
2023/12/15 05:44:13;;;;;;;11.88;10.32;;;11.30;99.90;;;;;;5208282;28;20022;-75
2023/12/15 05:46:44;;;;;;;14.98;12.63;;;11.20;99.90;;;;;;5208261;28;20727;-73
2023/12/15 05:49:15;;;;;;;11.52;9.98;;;11.20;99.90;;;;;;5190679;28;20060;-76
2023/12/15 05:51:49;;;;;;;11.40;10.18;;;11.30;99.90;;;;;;5190821;28;20021;-73
2023/12/15 05:54:20;;;;;;;10.30;9.25;;;11.30;99.90;;;;;;5208375;28;20112;-76
2023/12/15 05:56:51;;;;;;;15.63;11.25;;;11.30;99.90;;;;;;5190360;28;20504;-74
2023/12/15 05:59:22;;;;;;;11.85;10.10;;;11.40;99.90;;;;;;5207721;28;20045;-74
2023/12/15 06:01:53;;;;;;;10.75;9.13;;;11.40;99.90;;;;;;5207069;28;20103;-76
2023/12/15 06:04:24;;;;;;;11.00;10.02;;;11.30;99.90;;;;;;5207545;28;20029;-76
2023/12/15 06:06:55;;;;;;;11.68;10.10;;;11.20;99.90;;;;;;5207119;28;20041;-73
2023/12/15 06:09:25;;;;;;;11.70;10.68;;;11.40;99.90;;;;;;5206563;28;20025;-76
2023/12/15 06:11:56;;;;;;;14.13;12.80;;;11.30;99.90;;;;;;5207044;28;20377;-77
2023/12/15 06:14:27;;;;;;;15.80;11.93;;;11.40;99.90;;;;;;5207006;28;20103;-74
2023/12/15 06:16:59;;;;;;;13.65;11.65;;;11.50;99.90;;;;;;5206220;28;20037;-77
2023/12/15 06:19:30;;;;;;;14.82;12.18;;;11.30;99.90;;;;;;5206601;28;20041;-75
2023/12/15 06:22:01;;;;;;;11.48;10.27;;;11.40;99.90;;;;;;5189761;28;20037;-74
2023/12/15 06:24:32;;;;;;;11.40;10.40;;;11.40;99.90;;;;;;5207534;28;20080;-75
2023/12/15 06:27:03;;;;;;;11.27;10.27;;;11.40;99.90;;;;;;5206160;28;20123;-76
2023/12/15 06:29:34;;;;;;;10.43;9.48;;;11.20;99.90;;;;;;5189181;28;20026;-76
2023/12/15 06:32:05;;;;;;;13.13;11.95;;;11.30;99.90;;;;;;5186988;28;20497;-75
2023/12/15 06:34:37;;;;;;;14.90;13.60;;;11.30;99.90;;;;;;5169348;28;20020;-75
2023/12/15 06:37:08;;;;;;;15.95;14.48;;;11.30;99.90;;;;;;5186916;28;20037;-73
2023/12/15 06:39:39;;;;;;;13.55;12.32;;;11.30;99.90;;;;;;5186799;28;20014;-74
2023/12/15 06:42:10;;;;;;;16.00;14.55;;;11.30;99.90;;;;;;5187016;28;20033;-74
2023/12/15 06:44:41;;;;;;;15.10;13.85;;;11.40;99.90;;;;;;5186715;28;20377;-74
2023/12/15 06:47:11;;;;;;;14.82;13.55;;;11.30;99.90;;;;;;5169322;28;20045;-72
2023/12/15 06:49:42;;;;;;;14.38;12.98;;;11.20;99.90;;;;;;5186519;28;20022;-73
2023/12/15 06:52:15;;;;;;;13.63;12.32;;;11.10;99.90;;;;;;5168792;28;20034;-74
2023/12/15 06:54:46;;;;;;;15.18;13.32;;;11.00;99.90;;;;;;5186467;28;20077;-73
2023/12/15 06:57:16;;;;;;;12.93;11.93;;;11.20;99.90;;;;;;5185791;28;20029;-73
2023/12/15 06:59:47;;;;;;;14.50;13.07;;;11.20;99.90;;;;;;5191613;28;20119;-73
2023/12/15 07:02:18;;;;;;;13.88;12.43;;;11.30;99.90;;;;;;5175043;28;20026;-75
2023/12/15 07:04:49;;;;;;;11.50;10.35;;;11.30;99.90;;;;;;5197011;28;20513;-77
2023/12/15 07:07:22;;;;;;;10.98;9.57;;;11.30;99.90;;;;;;5186667;28;20473;-75
2023/12/15 07:09:55;;;;;;;13.23;9.30;;;11.40;99.90;;;;;;5172979;28;20025;-73
2023/12/15 07:12:26;;;;;;;9.73;8.85;;;11.30;99.90;;;;;;5194288;28;20026;-73
2023/12/15 07:14:57;;;;;;;9.48;7.70;;;11.30;99.90;;;;;;5177887;28;20024;-74
2023/12/15 07:17:29;;;;;;;9.18;7.88;;;11.30;99.90;;;;;;5173866;28;20080;-75
2023/12/15 07:19:59;;;;;;;9.75;8.85;;;11.30;99.90;;;;;;5197012;28;20025;-74
2023/12/15 07:22:30;;;;;;;9.48;8.57;;;11.40;99.90;;;;;;5176242;28;20029;-73
2023/12/15 07:25:06;;;;;;;9.45;8.63;;;11.30;99.90;;;;;;5195991;28;20057;-73
2023/12/15 07:27:37;;;;;;;9.38;8.48;;;11.20;99.90;;;;;;5174894;28;20065;-75
2023/12/15 07:30:08;;;;;;;9.13;8.32;;;11.30;99.90;;;;;;5187884;28;20118;-74
2023/12/15 07:32:39;;;;;;;8.85;8.10;;;11.40;99.90;;;;;;5205838;28;20045;-72
2023/12/15 07:35:10;;;;;;;10.48;8.65;;;11.50;99.90;;;;;;5205637;28;20413;-74
2023/12/15 07:37:41;;;;;;;11.25;9.20;;;11.30;99.90;;;;;;5205824;28;20389;-74
2023/12/15 07:40:12;;;;;;;11.75;10.65;;;11.20;99.90;;;;;;5200178;28;20029;-73
2023/12/15 07:42:43;;;;;;;9.00;7.88;;;11.50;99.90;;;;;;5185589;28;20385;-75
2023/12/15 07:45:14;;;;;;;8.93;7.95;;;11.40;99.90;;;;;;5203381;28;20025;-72
2023/12/15 07:47:45;;;;;;;9.25;8.35;;;11.20;99.90;;;;;;5204835;28;20124;-74
2023/12/15 07:50:16;;;;;;;10.38;9.27;;;11.40;99.90;;;;;;5205811;28;20021;-74
2023/12/15 07:52:47;;;;;;;10.30;9.30;;;11.50;99.90;;;;;;5205651;28;20021;-74
2023/12/15 07:55:18;;;;;;;10.10;8.98;;;11.50;99.90;;;;;;5187564;28;20030;-73
2023/12/15 07:57:49;;;;;;;10.70;9.20;;;11.60;99.90;;;;;;5186825;28;20180;-75
2023/12/15 08:00:19;;;;;;;9.13;6.82;;;11.50;99.90;;;;;;5204153;28;20568;-74
2023/12/15 08:02:50;;;;;;;9.55;8.65;;;11.30;99.90;;;;;;5186568;28;20036;-74
2023/12/15 08:05:22;;;;;;;8.60;7.80;;;11.40;99.90;;;;;;5205240;28;20080;-75
2023/12/15 08:07:52;;;;;;;10.13;7.68;;;11.40;99.90;;;;;;5197325;28;20026;-74
2023/12/15 08:10:26;;;;;;;8.52;7.72;;;11.40;99.90;;;;;;5186736;28;20502;-74
2023/12/15 08:12:57;;;;;;;7.60;6.70;;;11.40;99.90;;;;;;5206774;28;20071;-74
2023/12/15 08:15:29;;;;;;;8.10;7.38;;;11.50;99.90;;;;;;5205940;28;20033;-74
2023/12/15 08:18:00;;;;;;;9.25;8.02;;;11.40;99.90;;;;;;5206915;28;20030;-75
2023/12/15 08:20:31;;;;;;;10.38;8.70;;;11.30;99.90;;;;;;5205636;28;20573;-74
2023/12/15 08:23:02;;;;;;;10.50;8.43;;;11.30;99.90;;;;;;5206038;28;20100;-72
2023/12/15 08:25:32;;;;;;;8.70;7.80;;;11.20;99.90;;;;;;5205093;28;20483;-73
2023/12/15 08:28:03;;;;;;;12.35;8.45;;;11.20;99.90;;;;;;5204723;28;20049;-75
2023/12/15 08:30:34;;;;;;;12.75;9.65;;;11.20;99.90;;;;;;5204885;28;20469;-74
2023/12/15 08:33:05;;;;;;;11.82;10.63;;;11.20;99.90;;;;;;5205084;28;20032;-74
2023/12/15 08:35:36;;;;;;;14.90;12.60;;;11.20;99.90;;;;;;5203912;28;20021;-75
2023/12/15 08:38:07;;;;;;;14.50;13.00;;;11.20;99.90;;;;;;5204191;28;20045;-75
2023/12/15 08:40:38;;;;;;;22.95;17.85;;;11.20;99.90;;;;;;5205407;28;20029;-76
2023/12/15 08:43:09;;;;;;;21.08;17.50;;;11.20;99.90;;;;;;5205231;28;20101;-74
2023/12/15 08:45:40;;;;;;;21.98;17.90;;;11.20;99.90;;;;;;5205231;28;20033;-73
2023/12/15 08:48:11;;;;;;;25.50;21.45;;;11.10;99.90;;;;;;5204849;28;20029;-76
2023/12/15 08:50:41;;;;;;;20.85;17.30;;;11.00;99.90;;;;;;5204636;28;20029;-73
2023/12/15 08:53:12;;;;;;;18.95;17.05;;;11.00;99.90;;;;;;5204470;28;20030;-75
2023/12/15 08:55:44;;;;;;;20.85;16.73;;;11.10;99.90;;;;;;5203945;28;20025;-76
2023/12/15 08:58:15;;;;;;;20.70;18.48;;;11.00;99.90;;;;;;5203358;28;20037;-74
2023/12/15 09:00:46;;;;;;;20.38;18.27;;;11.10;99.90;;;;;;5197960;28;20038;-77
2023/12/15 09:03:17;;;;;;;20.40;16.65;;;11.10;99.90;;;;;;5188204;28;20018;-74
2023/12/15 09:05:48;;;;;;;18.35;15.90;;;11.00;99.90;;;;;;5171212;28;20528;-76
2023/12/15 09:08:19;;;;;;;20.05;15.93;;;11.10;99.90;;;;;;5171005;28;20038;-74
2023/12/15 09:10:51;;;;;;;17.42;15.52;;;10.90;99.90;;;;;;5188827;28;20026;-75
2023/12/15 09:13:22;;;;;;;18.80;15.52;;;11.00;99.90;;;;;;5188257;28;20501;-74
2023/12/15 09:15:53;;;;;;;19.70;15.38;;;11.00;99.90;;;;;;5191562;28;20036;-73
2023/12/15 09:18:23;;;;;;;16.45;14.02;;;11.00;99.90;;;;;;5191525;28;20029;-74
2023/12/15 09:20:54;;;;;;;14.55;12.82;;;11.10;99.90;;;;;;5202022;28;20033;-75
2023/12/15 09:23:25;;;;;;;16.00;12.60;;;11.20;99.90;;;;;;5196630;28;20025;-75
2023/12/15 09:25:56;;;;;;;15.32;12.65;;;11.00;99.90;;;;;;5196404;28;20374;-74
2023/12/15 09:28:27;;;;;;;17.10;12.98;;;11.10;99.90;;;;;;5196627;28;20146;-75
2023/12/15 09:30:58;;;;;;;15.18;13.55;;;11.00;99.90;;;;;;5200992;28;20022;-73
2023/12/15 09:33:28;;;;;;;16.88;13.15;;;11.00;99.90;;;;;;5190044;28;20048;-75
2023/12/15 09:35:59;;;;;;;15.60;12.95;;;10.90;99.90;;;;;;5202595;28;20025;-76
2023/12/15 09:38:30;;;;;;;17.27;14.73;;;11.10;99.90;;;;;;5182057;28;20029;-76
2023/12/15 09:41:01;;;;;;;15.85;13.98;;;11.00;99.90;;;;;;5178432;28;20033;-76
2023/12/15 09:43:32;;;;;;;15.02;13.20;;;11.00;99.90;;;;;;5181049;28;20026;-75
2023/12/15 09:46:04;;;;;;;12.68;11.45;;;10.80;99.90;;;;;;5174779;28;20037;-76
2023/12/15 09:48:35;;;;;;;13.52;12.32;;;10.90;99.90;;;;;;5198686;28;20112;-77
2023/12/15 09:51:24;;;;;;;14.02;12.25;;;10.90;99.90;;;;;;5181233;28;20632;-76
2023/12/15 09:53:55;;;;;;;14.10;11.80;;;10.80;99.90;;;;;;5201165;28;20018;-76
2023/12/15 09:56:26;;;;;;;13.85;11.82;;;10.80;99.90;;;;;;5195869;28;20030;-76
2023/12/15 09:58:57;;;;;;;17.45;12.13;;;10.80;99.90;;;;;;5175212;28;20106;-75
2023/12/15 10:01:27;;;;;;;13.30;11.50;;;10.90;99.90;;;;;;5177962;28;20026;-76
2023/12/15 10:03:58;;;;;;;11.60;10.25;;;10.90;99.90;;;;;;5197469;28;20026;-76
2023/12/15 10:06:32;;;;;;;11.25;10.13;;;10.90;99.90;;;;;;5195615;28;20049;-76
2023/12/15 10:09:15;;;;;;;11.05;9.88;;;10.80;99.90;;;;;;5197550;28;20025;-77
2023/12/15 10:11:46;;;;;;;12.02;9.27;;;10.90;99.90;;;;;;5200782;28;20024;-77
2023/12/15 10:14:19;;;;;;;11.98;10.05;;;10.90;99.90;;;;;;5180432;28;20025;-75
2023/12/15 10:16:50;;;;;;;12.90;8.95;;;10.90;99.90;;;;;;5199240;28;20109;-73
2023/12/15 10:19:24;;;;;;;14.82;7.88;;;11.00;99.90;;;;;;5203332;28;20032;-75
2023/12/15 10:21:55;;;;;;;13.60;9.43;;;10.80;99.90;;;;;;5190544;28;20388;-76
2023/12/15 10:24:26;;;;;;;9.43;8.52;;;10.50;99.90;;;;;;5190054;28;20028;-76
2023/12/15 10:26:59;;;;;;;11.15;9.68;;;10.60;99.90;;;;;;5207822;28;20033;-76
2023/12/15 10:29:30;;;;;;;12.82;10.48;;;10.60;99.90;;;;;;5201313;28;20037;-76
2023/12/15 10:32:01;;;;;;;14.10;10.88;;;10.70;99.90;;;;;;5187489;28;20504;-76
2023/12/15 10:34:33;;;;;;;12.20;10.05;;;10.80;99.90;;;;;;5169833;28;20045;-75
2023/12/15 10:37:04;;;;;;;11.93;10.13;;;10.70;99.90;;;;;;5187475;28;20021;-75
2023/12/15 10:39:35;;;;;;;14.50;11.55;;;10.60;99.90;;;;;;5191887;28;20036;-75
2023/12/15 10:42:07;;;;;;;12.65;10.88;;;10.80;99.90;;;;;;5180539;28;20036;-76
2023/12/15 10:44:39;;;;;;;16.05;10.73;;;10.70;99.90;;;;;;5196842;28;20088;-74
2023/12/15 10:47:11;;;;;;;12.68;10.60;;;10.70;99.90;;;;;;5193332;28;20167;-74
2023/12/15 10:49:42;;;;;;;11.70;10.50;;;10.60;99.90;;;;;;5197739;28;20397;-73
2023/12/15 10:52:17;;;;;;;14.00;10.25;;;10.80;99.90;;;;;;5191647;28;20041;-76
2023/12/15 10:54:59;;;;;;;16.05;11.05;;;10.80;99.90;;;;;;5192497;28;20070;-75
2023/12/15 10:57:33;;;;;;;11.90;10.13;;;10.70;99.90;;;;;;5198715;28;20393;-75
2023/12/15 11:00:05;;;;;;;12.63;10.25;;;10.70;99.90;;;;;;5195526;28;20049;-74
2023/12/15 11:02:37;;;;;;;15.52;10.93;;;10.60;99.90;;;;;;5201157;28;20537;-75
2023/12/15 11:05:09;;;;;;;13.50;10.77;;;10.60;99.90;;;;;;5191907;28;20025;-75
2023/12/15 11:07:40;;;;;;;15.00;10.45;;;10.50;99.90;;;;;;5169584;28;20124;-75
2023/12/15 11:10:12;;;;;;;12.90;10.63;;;10.60;99.90;;;;;;5169865;28;20068;-74
2023/12/15 11:12:43;;;;;;;15.38;11.60;;;10.50;99.90;;;;;;5170172;28;20034;-75
2023/12/15 11:15:20;;;;;;;16.02;12.90;;;10.60;99.90;;;;;;5187272;28;20056;-75
2023/12/15 11:17:57;;;;;;;16.33;11.93;;;10.60;99.90;;;;;;5187238;28;20030;-75
2023/12/15 11:20:28;;;;;;;17.00;11.32;;;10.50;99.90;;;;;;5185967;28;20161;-74
2023/12/15 11:23:07;;;;;;;12.68;9.43;;;10.50;99.90;;;;;;5186426;28;20398;-75
2023/12/15 11:25:57;;;;;;;14.57;7.43;;;10.40;99.90;;;;;;5186699;28;20022;-75
2023/12/15 11:28:28;;;;;;;13.80;7.93;;;10.20;99.90;;;;;;5188456;28;20041;-74
2023/12/15 11:30:59;;;;;;;11.18;8.20;;;10.40;99.90;;;;;;5187526;28;20505;-74
2023/12/15 11:33:29;;;;;;;8.25;6.55;;;10.30;99.90;;;;;;5193310;28;20046;-75
2023/12/15 11:36:02;;;;;;;9.55;7.10;;;10.20;99.90;;;;;;5198748;28;20022;-75
2023/12/15 11:38:40;;;;;;;12.02;8.68;;;10.20;99.90;;;;;;5199422;28;20041;-75
2023/12/15 11:41:14;;;;;;;9.88;8.35;;;10.20;99.90;;;;;;5181095;28;20028;-76
2023/12/15 11:43:46;;;;;;;10.32;9.02;;;10.30;99.90;;;;;;5198037;28;20029;-75
2023/12/15 11:46:26;;;;;;;10.52;9.50;;;10.30;99.90;;;;;;5206824;28;20456;-76
2023/12/15 11:48:57;;;;;;;39.30;30.05;;;10.30;99.90;;;;;;5207534;28;20037;-75
2023/12/15 11:51:30;;;;;;;13.73;11.90;;;10.30;99.90;;;;;;5189600;28;20029;-77
2023/12/15 11:54:03;;;;;;;11.27;10.18;;;10.40;99.90;;;;;;5207070;28;20063;-76
2023/12/15 11:56:34;;;;;;;22.15;18.88;;;10.30;99.90;;;;;;5207119;28;20028;-75
2023/12/15 11:59:05;;;;;;;11.00;9.93;;;10.10;99.90;;;;;;5188916;28;20475;-76
2023/12/15 12:01:38;;;;;;;6.72;6.03;;;10.20;99.90;;;;;;5189648;28;20040;-77
2023/12/15 12:04:19;;;;;;;7.72;6.65;;;10.20;99.90;;;;;;5188879;28;20029;-75
2023/12/15 12:06:51;;;;;;;8.35;7.60;;;10.30;99.90;;;;;;5206690;28;20010;-76
2023/12/15 12:09:24;;;;;;;9.00;8.13;;;10.30;99.90;;;;;;5206724;28;20088;-75
2023/12/15 12:11:56;;;;;;;7.95;7.20;;;10.00;99.90;;;;;;5206661;28;20072;-76
2023/12/15 12:14:27;;;;;;;8.05;6.80;;;10.10;99.90;;;;;;5206799;28;20022;-77
2023/12/15 12:16:59;;;;;;;7.15;6.07;;;10.10;99.90;;;;;;5206571;28;20021;-76
2023/12/15 12:19:37;;;;;;;7.53;6.15;;;10.00;99.90;;;;;;5206869;28;20057;-76
2023/12/15 12:22:13;;;;;;;8.95;5.32;;;10.20;99.90;;;;;;5206868;28;20064;-76
2023/12/15 12:24:44;;;;;;;7.45;6.00;;;9.90;99.90;;;;;;5206856;28;20047;-76
2023/12/15 12:27:14;;;;;;;8.90;6.47;;;10.00;99.90;;;;;;5206480;28;20045;-75
2023/12/15 12:29:46;;;;;;;9.55;7.82;;;10.00;99.90;;;;;;5206588;28;20021;-77
2023/12/15 12:32:17;;;;;;;12.50;7.72;;;9.90;99.90;;;;;;5188760;28;20366;-77
2023/12/15 12:34:48;;;;;;;9.73;7.22;;;9.90;99.90;;;;;;5188497;28;20087;-76
2023/12/15 12:37:19;;;;;;;10.80;6.80;;;10.00;99.90;;;;;;5206663;28;20034;-75
2023/12/15 12:39:49;;;;;;;8.68;6.75;;;10.00;99.90;;;;;;5188892;28;20412;-75
2023/12/15 12:42:21;;;;;;;11.48;6.72;;;10.10;99.90;;;;;;5188869;28;20116;-79
2023/12/15 12:44:53;;;;;;;11.85;8.35;;;10.00;99.90;;;;;;5206009;28;20025;-78
2023/12/15 12:47:24;;;;;;;9.85;8.80;;;10.10;99.90;;;;;;5206167;28;20056;-78
2023/12/15 12:49:55;;;;;;;12.77;7.47;;;10.00;99.90;;;;;;5206722;28;20068;-78
2023/12/15 12:52:26;;;;;;;14.48;8.25;;;10.00;99.90;;;;;;5206844;28;20017;-77
2023/12/15 12:54:56;;;;;;;12.02;9.30;;;10.00;99.90;;;;;;5189263;28;20541;-77